sensor_id;sensor_type;location;lat;lon;timestamp;temperature;humidity
19206;DHT22;59358;52.134;5.596;2022-10-15T00:00:48;11.40;99.90
19206;DHT22;59358;52.134;5.596;2022-10-15T00:03:16;11.50;99.90
19206;DHT22;59358;52.134;5.596;2022-10-15T00:05:43;11.60;99.90
19206;DHT22;59358;52.134;5.596;2022-10-15T00:08:10;11.70;99.90
19206;DHT22;59358;52.134;5.596;2022-10-15T00:10:37;11.70;99.90
19206;DHT22;59358;52.134;5.596;2022-10-15T00:13:05;11.80;99.90
19206;DHT22;59358;52.134;5.596;2022-10-15T00:15:35;11.90;99.90
19206;DHT22;59358;52.134;5.596;2022-10-15T00:18:01;11.90;99.90
19206;DHT22;59358;52.134;5.596;2022-10-15T00:20:28;12.00;99.90
19206;DHT22;59358;52.134;5.596;2022-10-15T00:22:56;12.00;99.90
19206;DHT22;59358;52.134;5.596;2022-10-15T00:25:22;12.00;99.90
19206;DHT22;59358;52.134;5.596;2022-10-15T00:27:49;12.10;99.90
19206;DHT22;59358;52.134;5.596;2022-10-15T00:30:17;12.10;99.90
19206;DHT22;59358;52.134;5.596;2022-10-15T00:32:44;12.10;99.90
19206;DHT22;59358;52.134;5.596;2022-10-15T00:35:11;12.20;99.90
19206;DHT22;59358;52.134;5.596;2022-10-15T00:37:38;12.20;99.90
19206;DHT22;59358;52.134;5.596;2022-10-15T00:40:06;12.10;99.90
19206;DHT22;59358;52.134;5.596;2022-10-15T00:42:34;12.10;99.90
19206;DHT22;59358;52.134;5.596;2022-10-15T00:45:00;12.10;99.90
19206;DHT22;59358;52.134;5.596;2022-10-15T00:47:34;12.20;99.90
19206;DHT22;59358;52.134;5.596;2022-10-15T00:50:05;12.20;99.90
19206;DHT22;59358;52.134;5.596;2022-10-15T00:52:43;12.20;99.90
19206;DHT22;59358;52.134;5.596;2022-10-15T00:55:14;12.30;99.90
19206;DHT22;59358;52.134;5.596;2022-10-15T00:57:42;12.20;99.90
19206;DHT22;59358;52.134;5.596;2022-10-15T01:00:13;12.20;99.90
19206;DHT22;59358;52.134;5.596;2022-10-15T01:02:42;12.30;99.90
19206;DHT22;59358;52.134;5.596;2022-10-15T01:05:10;12.30;99.90
19206;DHT22;59358;52.134;5.596;2022-10-15T01:07:37;12.30;99.90
19206;DHT22;59358;52.134;5.596;2022-10-15T01:10:05;12.40;99.90
19206;DHT22;59358;52.134;5.596;2022-10-15T01:12:41;12.40;99.90
19206;DHT22;59358;52.134;5.596;2022-10-15T01:15:15;12.40;99.90
19206;DHT22;59358;52.134;5.596;2022-10-15T01:17:49;12.30;99.90
19206;DHT22;59358;52.134;5.596;2022-10-15T01:23:26;12.40;99.90
19206;DHT22;59358;52.134;5.596;2022-10-15T01:26:06;12.40;99.90
19206;DHT22;59358;52.134;5.596;2022-10-15T01:28:47;12.50;99.90
19206;DHT22;59358;52.134;5.596;2022-10-15T01:31:23;12.50;99.90
19206;DHT22;59358;52.134;5.596;2022-10-15T01:33:58;12.50;99.90
19206;DHT22;59358;52.134;5.596;2022-10-15T01:36:31;12.40;99.90
19206;DHT22;59358;52.134;5.596;2022-10-15T01:39:04;12.40;99.90
19206;DHT22;59358;52.134;5.596;2022-10-15T01:41:39;12.40;99.90
19206;DHT22;59358;52.134;5.596;2022-10-15T01:44:10;12.40;99.90
19206;DHT22;59358;52.134;5.596;2022-10-15T01:46:41;12.30;99.90
19206;DHT22;59358;52.134;5.596;2022-10-15T01:49:12;12.30;99.90
19206;DHT22;59358;52.134;5.596;2022-10-15T01:51:42;12.30;99.90
19206;DHT22;59358;52.134;5.596;2022-10-15T01:54:13;12.30;99.90
19206;DHT22;59358;52.134;5.596;2022-10-15T01:56:43;12.30;99.90
19206;DHT22;59358;52.134;5.596;2022-10-15T01:59:14;12.30;99.90
19206;DHT22;59358;52.134;5.596;2022-10-15T02:01:44;12.30;99.90
19206;DHT22;59358;52.134;5.596;2022-10-15T02:04:18;12.30;99.90
19206;DHT22;59358;52.134;5.596;2022-10-15T02:06:49;12.20;99.90
19206;DHT22;59358;52.134;5.596;2022-10-15T02:09:27;12.20;99.90
19206;DHT22;59358;52.134;5.596;2022-10-15T02:12:03;12.20;99.90
19206;DHT22;59358;52.134;5.596;2022-10-15T02:14:35;12.20;99.90
19206;DHT22;59358;52.134;5.596;2022-10-15T02:17:07;12.10;99.90
19206;DHT22;59358;52.134;5.596;2022-10-15T02:19:42;12.10;99.90
19206;DHT22;59358;52.134;5.596;2022-10-15T02:22:13;12.10;99.90
19206;DHT22;59358;52.134;5.596;2022-10-15T02:24:48;12.10;99.90
19206;DHT22;59358;52.134;5.596;2022-10-15T02:27:17;12.10;99.90
19206;DHT22;59358;52.134;5.596;2022-10-15T02:29:46;12.10;99.90
19206;DHT22;59358;52.134;5.596;2022-10-15T02:32:18;12.10;99.90
19206;DHT22;59358;52.134;5.596;2022-10-15T02:34:46;12.20;99.90
19206;DHT22;59358;52.134;5.596;2022-10-15T02:37:15;12.10;99.90
19206;DHT22;59358;52.134;5.596;2022-10-15T02:39:42;12.20;99.90
19206;DHT22;59358;52.134;5.596;2022-10-15T02:42:09;12.20;99.90
19206;DHT22;59358;52.134;5.596;2022-10-15T02:44:37;12.30;99.90
19206;DHT22;59358;52.134;5.596;2022-10-15T02:47:03;12.40;99.90
19206;DHT22;59358;52.134;5.596;2022-10-15T02:49:31;12.40;99.90
19206;DHT22;59358;52.134;5.596;2022-10-15T02:51:58;12.50;99.90
19206;DHT22;59358;52.134;5.596;2022-10-15T02:54:25;12.50;99.90
19206;DHT22;59358;52.134;5.596;2022-10-15T02:56:52;12.50;99.90
19206;DHT22;59358;52.134;5.596;2022-10-15T02:59:19;12.50;99.90
19206;DHT22;59358;52.134;5.596;2022-10-15T03:01:46;12.60;99.90
19206;DHT22;59358;52.134;5.596;2022-10-15T03:04:13;12.60;99.90
19206;DHT22;59358;52.134;5.596;2022-10-15T03:06:41;12.60;99.90
19206;DHT22;59358;52.134;5.596;2022-10-15T03:09:08;12.70;99.90
19206;DHT22;59358;52.134;5.596;2022-10-15T03:11:36;12.70;99.90
19206;DHT22;59358;52.134;5.596;2022-10-15T03:14:03;12.70;99.90
19206;DHT22;59358;52.134;5.596;2022-10-15T03:16:30;12.60;99.90
19206;DHT22;59358;52.134;5.596;2022-10-15T03:18:57;12.60;99.90
19206;DHT22;59358;52.134;5.596;2022-10-15T03:21:24;12.50;99.90
19206;DHT22;59358;52.134;5.596;2022-10-15T03:23:54;12.40;99.90
19206;DHT22;59358;52.134;5.596;2022-10-15T03:26:21;12.30;99.90
19206;DHT22;59358;52.134;5.596;2022-10-15T03:28:48;12.30;99.90
19206;DHT22;59358;52.134;5.596;2022-10-15T03:31:15;12.20;99.90
19206;DHT22;59358;52.134;5.596;2022-10-15T03:33:43;12.10;99.90
19206;DHT22;59358;52.134;5.596;2022-10-15T03:36:10;12.10;99.90
19206;DHT22;59358;52.134;5.596;2022-10-15T03:38:36;12.00;99.90
19206;DHT22;59358;52.134;5.596;2022-10-15T03:41:04;12.00;99.90
19206;DHT22;59358;52.134;5.596;2022-10-15T03:43:32;11.90;99.90
19206;DHT22;59358;52.134;5.596;2022-10-15T03:46:00;11.90;99.90
19206;DHT22;59358;52.134;5.596;2022-10-15T03:48:27;11.80;99.90
19206;DHT22;59358;52.134;5.596;2022-10-15T03:50:54;11.80;99.90
19206;DHT22;59358;52.134;5.596;2022-10-15T03:53:21;11.80;99.90
19206;DHT22;59358;52.134;5.596;2022-10-15T03:55:48;11.80;99.90
19206;DHT22;59358;52.134;5.596;2022-10-15T03:58:17;11.70;99.90
19206;DHT22;59358;52.134;5.596;2022-10-15T04:00:44;11.70;99.90
19206;DHT22;59358;52.134;5.596;2022-10-15T04:03:11;11.70;99.90
19206;DHT22;59358;52.134;5.596;2022-10-15T04:05:39;11.70;99.90
19206;DHT22;59358;52.134;5.596;2022-10-15T04:08:06;11.60;99.90
19206;DHT22;59358;52.134;5.596;2022-10-15T04:10:33;11.70;99.90
19206;DHT22;59358;52.134;5.596;2022-10-15T04:12:59;11.70;99.90
19206;DHT22;59358;52.134;5.596;2022-10-15T04:15:28;11.60;99.90
19206;DHT22;59358;52.134;5.596;2022-10-15T04:17:54;11.60;99.90
19206;DHT22;59358;52.134;5.596;2022-10-15T04:20:21;11.60;99.90
19206;DHT22;59358;52.134;5.596;2022-10-15T04:22:48;11.70;99.90
19206;DHT22;59358;52.134;5.596;2022-10-15T04:25:15;11.70;99.90
19206;DHT22;59358;52.134;5.596;2022-10-15T04:27:42;11.80;99.90
19206;DHT22;59358;52.134;5.596;2022-10-15T04:30:10;11.80;99.90
19206;DHT22;59358;52.134;5.596;2022-10-15T04:32:39;11.90;99.90
19206;DHT22;59358;52.134;5.596;2022-10-15T04:35:06;11.90;99.90
19206;DHT22;59358;52.134;5.596;2022-10-15T04:37:33;11.90;99.90
19206;DHT22;59358;52.134;5.596;2022-10-15T04:40:00;11.90;99.90
19206;DHT22;59358;52.134;5.596;2022-10-15T04:42:27;12.00;99.90
19206;DHT22;59358;52.134;5.596;2022-10-15T04:44:55;12.00;99.90
19206;DHT22;59358;52.134;5.596;2022-10-15T04:47:22;12.00;99.90
19206;DHT22;59358;52.134;5.596;2022-10-15T04:49:50;12.00;99.90
19206;DHT22;59358;52.134;5.596;2022-10-15T04:52:17;12.00;99.90
19206;DHT22;59358;52.134;5.596;2022-10-15T04:54:44;12.00;99.90
19206;DHT22;59358;52.134;5.596;2022-10-15T04:57:11;12.10;99.90
19206;DHT22;59358;52.134;5.596;2022-10-15T04:59:38;12.10;99.90
19206;DHT22;59358;52.134;5.596;2022-10-15T05:02:05;12.20;99.90
19206;DHT22;59358;52.134;5.596;2022-10-15T05:04:31;12.20;99.90
19206;DHT22;59358;52.134;5.596;2022-10-15T05:07:00;12.20;99.90
19206;DHT22;59358;52.134;5.596;2022-10-15T05:09:27;12.30;99.90
19206;DHT22;59358;52.134;5.596;2022-10-15T05:11:53;12.40;99.90
19206;DHT22;59358;52.134;5.596;2022-10-15T05:14:20;12.40;99.90
19206;DHT22;59358;52.134;5.596;2022-10-15T05:16:47;12.50;99.90
19206;DHT22;59358;52.134;5.596;2022-10-15T05:19:14;12.50;99.90
19206;DHT22;59358;52.134;5.596;2022-10-15T05:21:42;12.50;99.90
19206;DHT22;59358;52.134;5.596;2022-10-15T05:24:10;12.50;99.90
19206;DHT22;59358;52.134;5.596;2022-10-15T05:26:37;12.50;99.90
19206;DHT22;59358;52.134;5.596;2022-10-15T05:29:04;12.50;99.90
19206;DHT22;59358;52.134;5.596;2022-10-15T05:31:32;12.50;99.90
19206;DHT22;59358;52.134;5.596;2022-10-15T05:34:05;12.50;99.90
19206;DHT22;59358;52.134;5.596;2022-10-15T05:36:32;12.60;99.90
19206;DHT22;59358;52.134;5.596;2022-10-15T05:39:01;12.60;99.90
19206;DHT22;59358;52.134;5.596;2022-10-15T05:41:30;12.60;99.90
19206;DHT22;59358;52.134;5.596;2022-10-15T05:43:57;12.60;99.90
19206;DHT22;59358;52.134;5.596;2022-10-15T05:46:25;12.60;99.90
19206;DHT22;59358;52.134;5.596;2022-10-15T05:48:53;12.60;99.90
19206;DHT22;59358;52.134;5.596;2022-10-15T05:51:21;12.70;99.90
19206;DHT22;59358;52.134;5.596;2022-10-15T05:53:50;12.70;99.90
19206;DHT22;59358;52.134;5.596;2022-10-15T05:56:17;12.60;99.90
19206;DHT22;59358;52.134;5.596;2022-10-15T05:58:45;12.60;99.90
19206;DHT22;59358;52.134;5.596;2022-10-15T06:01:13;12.60;99.90
19206;DHT22;59358;52.134;5.596;2022-10-15T06:03:40;12.60;99.90
19206;DHT22;59358;52.134;5.596;2022-10-15T06:06:15;12.60;99.90
19206;DHT22;59358;52.134;5.596;2022-10-15T06:08:42;12.60;99.90
19206;DHT22;59358;52.134;5.596;2022-10-15T06:11:09;12.70;99.90
19206;DHT22;59358;52.134;5.596;2022-10-15T06:13:37;12.70;99.90
19206;DHT22;59358;52.134;5.596;2022-10-15T06:16:06;12.70;99.90
19206;DHT22;59358;52.134;5.596;2022-10-15T06:18:33;12.70;99.90
19206;DHT22;59358;52.134;5.596;2022-10-15T06:21:00;12.70;99.90
19206;DHT22;59358;52.134;5.596;2022-10-15T06:23:27;12.70;99.90
19206;DHT22;59358;52.134;5.596;2022-10-15T06:25:54;12.70;99.90
19206;DHT22;59358;52.134;5.596;2022-10-15T06:28:21;12.70;99.90
19206;DHT22;59358;52.134;5.596;2022-10-15T06:30:47;12.70;99.90
19206;DHT22;59358;52.134;5.596;2022-10-15T06:33:16;12.70;99.90
19206;DHT22;59358;52.134;5.596;2022-10-15T06:35:42;12.70;99.90
19206;DHT22;59358;52.134;5.596;2022-10-15T06:38:11;12.70;99.90
19206;DHT22;59358;52.134;5.596;2022-10-15T06:40:38;12.70;99.90
19206;DHT22;59358;52.134;5.596;2022-10-15T06:43:06;12.70;99.90
19206;DHT22;59358;52.134;5.596;2022-10-15T06:45:35;12.70;99.90
19206;DHT22;59358;52.134;5.596;2022-10-15T06:48:02;12.70;99.90
19206;DHT22;59358;52.134;5.596;2022-10-15T06:50:31;12.80;99.90
19206;DHT22;59358;52.134;5.596;2022-10-15T06:52:58;12.80;99.90
19206;DHT22;59358;52.134;5.596;2022-10-15T06:55:26;12.80;99.90
19206;DHT22;59358;52.134;5.596;2022-10-15T06:57:53;12.80;99.90
19206;DHT22;59358;52.134;5.596;2022-10-15T07:00:20;12.90;99.90
19206;DHT22;59358;52.134;5.596;2022-10-15T07:02:48;13.00;99.90
19206;DHT22;59358;52.134;5.596;2022-10-15T07:05:14;13.00;99.90
19206;DHT22;59358;52.134;5.596;2022-10-15T07:07:50;13.00;99.90
19206;DHT22;59358;52.134;5.596;2022-10-15T07:10:17;13.10;99.90
19206;DHT22;59358;52.134;5.596;2022-10-15T07:12:44;13.30;99.90
19206;DHT22;59358;52.134;5.596;2022-10-15T07:15:11;13.40;99.90
19206;DHT22;59358;52.134;5.596;2022-10-15T07:17:38;13.40;99.90
19206;DHT22;59358;52.134;5.596;2022-10-15T07:20:06;13.50;99.90
19206;DHT22;59358;52.134;5.596;2022-10-15T07:22:33;13.60;99.90
19206;DHT22;59358;52.134;5.596;2022-10-15T07:25:01;13.70;99.90
19206;DHT22;59358;52.134;5.596;2022-10-15T07:27:28;13.90;99.90
19206;DHT22;59358;52.134;5.596;2022-10-15T07:29:55;13.90;99.90
19206;DHT22;59358;52.134;5.596;2022-10-15T07:32:21;14.00;99.90
19206;DHT22;59358;52.134;5.596;2022-10-15T07:34:48;14.00;99.90
19206;DHT22;59358;52.134;5.596;2022-10-15T07:37:15;14.00;99.90
19206;DHT22;59358;52.134;5.596;2022-10-15T07:39:42;14.00;99.90
19206;DHT22;59358;52.134;5.596;2022-10-15T07:42:10;14.00;99.90
19206;DHT22;59358;52.134;5.596;2022-10-15T07:44:37;14.20;99.90
19206;DHT22;59358;52.134;5.596;2022-10-15T07:47:03;14.30;99.90
19206;DHT22;59358;52.134;5.596;2022-10-15T07:49:30;14.40;99.90
19206;DHT22;59358;52.134;5.596;2022-10-15T07:51:57;14.30;99.90
19206;DHT22;59358;52.134;5.596;2022-10-15T07:54:24;14.50;99.90
19206;DHT22;59358;52.134;5.596;2022-10-15T07:56:51;14.50;99.90
19206;DHT22;59358;52.134;5.596;2022-10-15T07:59:19;14.60;99.90
19206;DHT22;59358;52.134;5.596;2022-10-15T08:01:46;14.60;99.90
19206;DHT22;59358;52.134;5.596;2022-10-15T08:04:13;14.60;99.90
19206;DHT22;59358;52.134;5.596;2022-10-15T08:06:40;14.60;99.90
19206;DHT22;59358;52.134;5.596;2022-10-15T08:09:06;14.60;99.90
19206;DHT22;59358;52.134;5.596;2022-10-15T08:11:33;14.60;99.90
19206;DHT22;59358;52.134;5.596;2022-10-15T08:14:00;14.70;99.90
19206;DHT22;59358;52.134;5.596;2022-10-15T08:16:29;14.70;99.90
19206;DHT22;59358;52.134;5.596;2022-10-15T08:18:56;14.70;99.90
19206;DHT22;59358;52.134;5.596;2022-10-15T08:21:23;14.70;99.90
19206;DHT22;59358;52.134;5.596;2022-10-15T08:23:50;14.90;99.90
19206;DHT22;59358;52.134;5.596;2022-10-15T08:26:18;15.00;99.90
19206;DHT22;59358;52.134;5.596;2022-10-15T08:28:44;15.30;99.90
19206;DHT22;59358;52.134;5.596;2022-10-15T08:31:11;15.40;99.90
19206;DHT22;59358;52.134;5.596;2022-10-15T08:33:40;15.30;99.90
19206;DHT22;59358;52.134;5.596;2022-10-15T08:36:08;15.20;99.90
19206;DHT22;59358;52.134;5.596;2022-10-15T08:38:35;15.20;99.90
19206;DHT22;59358;52.134;5.596;2022-10-15T08:41:05;15.30;99.90
19206;DHT22;59358;52.134;5.596;2022-10-15T08:43:40;15.50;99.90
19206;DHT22;59358;52.134;5.596;2022-10-15T08:46:10;15.40;99.90
19206;DHT22;59358;52.134;5.596;2022-10-15T08:48:45;15.40;99.90
19206;DHT22;59358;52.134;5.596;2022-10-15T08:51:13;15.30;99.90
19206;DHT22;59358;52.134;5.596;2022-10-15T08:53:46;15.30;99.90
19206;DHT22;59358;52.134;5.596;2022-10-15T08:56:18;15.20;99.90
19206;DHT22;59358;52.134;5.596;2022-10-15T08:58:52;15.30;99.90
19206;DHT22;59358;52.134;5.596;2022-10-15T09:01:23;15.30;99.90
19206;DHT22;59358;52.134;5.596;2022-10-15T09:04:05;15.40;99.90
19206;DHT22;59358;52.134;5.596;2022-10-15T09:06:36;15.50;99.90
19206;DHT22;59358;52.134;5.596;2022-10-15T09:09:09;15.50;99.90
19206;DHT22;59358;52.134;5.596;2022-10-15T09:11:47;15.70;99.90
19206;DHT22;59358;52.134;5.596;2022-10-15T09:14:19;15.60;99.90
19206;DHT22;59358;52.134;5.596;2022-10-15T09:16:48;15.70;99.90
19206;DHT22;59358;52.134;5.596;2022-10-15T09:19:18;15.70;99.90
19206;DHT22;59358;52.134;5.596;2022-10-15T09:21:47;15.70;99.90
19206;DHT22;59358;52.134;5.596;2022-10-15T09:24:19;15.60;99.90
19206;DHT22;59358;52.134;5.596;2022-10-15T09:26:57;15.70;99.90
19206;DHT22;59358;52.134;5.596;2022-10-15T09:29:30;15.90;99.90
19206;DHT22;59358;52.134;5.596;2022-10-15T09:32:06;16.00;99.90
19206;DHT22;59358;52.134;5.596;2022-10-15T09:34:39;16.20;99.90
19206;DHT22;59358;52.134;5.596;2022-10-15T09:37:15;16.50;99.90
19206;DHT22;59358;52.134;5.596;2022-10-15T09:39:53;16.70;99.90
19206;DHT22;59358;52.134;5.596;2022-10-15T09:42:28;17.00;99.90
19206;DHT22;59358;52.134;5.596;2022-10-15T09:44:59;17.00;99.90
19206;DHT22;59358;52.134;5.596;2022-10-15T09:47:30;16.90;99.90
19206;DHT22;59358;52.134;5.596;2022-10-15T09:49:59;17.00;99.90
19206;DHT22;59358;52.134;5.596;2022-10-15T09:52:45;16.90;99.90
19206;DHT22;59358;52.134;5.596;2022-10-15T09:55:34;16.90;99.90
19206;DHT22;59358;52.134;5.596;2022-10-15T09:58:05;16.80;99.90
19206;DHT22;59358;52.134;5.596;2022-10-15T10:00:57;16.90;99.90
19206;DHT22;59358;52.134;5.596;2022-10-15T10:03:27;17.00;99.90
19206;DHT22;59358;52.134;5.596;2022-10-15T10:06:04;17.00;99.90
19206;DHT22;59358;52.134;5.596;2022-10-15T10:08:34;17.10;99.90
19206;DHT22;59358;52.134;5.596;2022-10-15T10:11:03;16.90;99.90
19206;DHT22;59358;52.134;5.596;2022-10-15T10:13:45;16.80;99.90
19206;DHT22;59358;52.134;5.596;2022-10-15T10:16:17;16.80;99.90
19206;DHT22;59358;52.134;5.596;2022-10-15T10:19:02;16.70;99.90
19206;DHT22;59358;52.134;5.596;2022-10-15T10:21:32;16.70;99.90
19206;DHT22;59358;52.134;5.596;2022-10-15T10:24:18;16.80;99.90
19206;DHT22;59358;52.134;5.596;2022-10-15T10:26:46;17.00;99.90
19206;DHT22;59358;52.134;5.596;2022-10-15T10:29:18;16.90;99.90
19206;DHT22;59358;52.134;5.596;2022-10-15T10:31:46;16.60;99.90
19206;DHT22;59358;52.134;5.596;2022-10-15T10:34:17;16.50;99.90
19206;DHT22;59358;52.134;5.596;2022-10-15T10:36:50;16.50;99.90
19206;DHT22;59358;52.134;5.596;2022-10-15T10:39:24;16.50;99.90
19206;DHT22;59358;52.134;5.596;2022-10-15T10:41:53;16.30;99.90
19206;DHT22;59358;52.134;5.596;2022-10-15T10:44:26;16.30;99.90
19206;DHT22;59358;52.134;5.596;2022-10-15T10:47:08;16.20;99.90
19206;DHT22;59358;52.134;5.596;2022-10-15T10:49:37;16.20;99.90
19206;DHT22;59358;52.134;5.596;2022-10-15T10:52:10;16.10;99.90
19206;DHT22;59358;52.134;5.596;2022-10-15T10:54:44;16.00;99.90
19206;DHT22;59358;52.134;5.596;2022-10-15T10:57:13;16.00;99.90
19206;DHT22;59358;52.134;5.596;2022-10-15T10:59:44;16.10;99.90
19206;DHT22;59358;52.134;5.596;2022-10-15T11:02:14;16.10;99.90
19206;DHT22;59358;52.134;5.596;2022-10-15T11:04:40;16.10;99.90
19206;DHT22;59358;52.134;5.596;2022-10-15T11:07:14;16.10;99.90
19206;DHT22;59358;52.134;5.596;2022-10-15T11:09:50;15.90;99.90
19206;DHT22;59358;52.134;5.596;2022-10-15T11:12:34;15.80;99.90
19206;DHT22;59358;52.134;5.596;2022-10-15T11:15:19;15.90;99.90
19206;DHT22;59358;52.134;5.596;2022-10-15T11:17:58;15.80;99.90
19206;DHT22;59358;52.134;5.596;2022-10-15T11:20:35;15.70;99.90
19206;DHT22;59358;52.134;5.596;2022-10-15T11:23:17;15.60;99.90
19206;DHT22;59358;52.134;5.596;2022-10-15T11:25:55;15.60;99.90
19206;DHT22;59358;52.134;5.596;2022-10-15T11:28:33;15.60;99.90
19206;DHT22;59358;52.134;5.596;2022-10-15T11:31:14;15.80;99.90
19206;DHT22;59358;52.134;5.596;2022-10-15T11:33:59;15.90;99.90
19206;DHT22;59358;52.134;5.596;2022-10-15T11:36:42;16.00;99.90
19206;DHT22;59358;52.134;5.596;2022-10-15T11:39:36;16.00;99.90
19206;DHT22;59358;52.134;5.596;2022-10-15T11:42:15;16.00;99.90
19206;DHT22;59358;52.134;5.596;2022-10-15T11:45:06;16.00;99.90
19206;DHT22;59358;52.134;5.596;2022-10-15T11:47:46;16.00;99.90
19206;DHT22;59358;52.134;5.596;2022-10-15T11:50:24;15.90;99.90
19206;DHT22;59358;52.134;5.596;2022-10-15T11:55:49;16.00;99.90
19206;DHT22;59358;52.134;5.596;2022-10-15T11:58:25;16.00;99.90
19206;DHT22;59358;52.134;5.596;2022-10-15T12:00:59;16.00;99.90
19206;DHT22;59358;52.134;5.596;2022-10-15T12:03:30;16.10;99.90
19206;DHT22;59358;52.134;5.596;2022-10-15T12:06:04;16.10;99.90
19206;DHT22;59358;52.134;5.596;2022-10-15T12:08:35;16.20;99.90
19206;DHT22;59358;52.134;5.596;2022-10-15T12:11:14;16.20;99.90
19206;DHT22;59358;52.134;5.596;2022-10-15T12:13:49;16.30;99.90
19206;DHT22;59358;52.134;5.596;2022-10-15T12:16:24;16.20;99.90
19206;DHT22;59358;52.134;5.596;2022-10-15T12:18:59;16.10;99.90
19206;DHT22;59358;52.134;5.596;2022-10-15T12:21:31;16.20;99.90
19206;DHT22;59358;52.134;5.596;2022-10-15T12:23:59;16.10;99.90
19206;DHT22;59358;52.134;5.596;2022-10-15T12:26:30;16.10;99.90
19206;DHT22;59358;52.134;5.596;2022-10-15T12:28:59;16.20;99.90
19206;DHT22;59358;52.134;5.596;2022-10-15T12:31:43;16.30;99.90
19206;DHT22;59358;52.134;5.596;2022-10-15T12:34:28;16.40;99.90
19206;DHT22;59358;52.134;5.596;2022-10-15T12:36:59;16.50;99.90
19206;DHT22;59358;52.134;5.596;2022-10-15T12:39:27;16.50;99.90
19206;DHT22;59358;52.134;5.596;2022-10-15T12:41:55;16.30;99.90
19206;DHT22;59358;52.134;5.596;2022-10-15T12:44:24;16.30;99.90
19206;DHT22;59358;52.134;5.596;2022-10-15T12:46:52;16.30;99.90
19206;DHT22;59358;52.134;5.596;2022-10-15T12:49:45;16.20;99.90
19206;DHT22;59358;52.134;5.596;2022-10-15T12:52:50;16.20;99.90
19206;DHT22;59358;52.134;5.596;2022-10-15T12:55:23;16.20;99.90
19206;DHT22;59358;52.134;5.596;2022-10-15T12:57:59;16.20;99.90
19206;DHT22;59358;52.134;5.596;2022-10-15T13:00:29;16.20;99.90
19206;DHT22;59358;52.134;5.596;2022-10-15T13:03:06;16.30;99.90
19206;DHT22;59358;52.134;5.596;2022-10-15T13:05:34;16.40;99.90
19206;DHT22;59358;52.134;5.596;2022-10-15T13:08:03;16.40;99.90
19206;DHT22;59358;52.134;5.596;2022-10-15T13:10:34;16.40;99.90
19206;DHT22;59358;52.134;5.596;2022-10-15T13:13:05;16.50;99.90
19206;DHT22;59358;52.134;5.596;2022-10-15T13:15:33;16.60;99.90
19206;DHT22;59358;52.134;5.596;2022-10-15T13:18:06;16.70;99.90
19206;DHT22;59358;52.134;5.596;2022-10-15T13:20:36;16.90;99.90
19206;DHT22;59358;52.134;5.596;2022-10-15T13:23:08;16.70;99.90
19206;DHT22;59358;52.134;5.596;2022-10-15T13:25:35;16.80;99.90
19206;DHT22;59358;52.134;5.596;2022-10-15T13:28:31;16.80;99.90
19206;DHT22;59358;52.134;5.596;2022-10-15T13:31:01;16.70;99.90
19206;DHT22;59358;52.134;5.596;2022-10-15T13:33:28;16.80;99.90
19206;DHT22;59358;52.134;5.596;2022-10-15T13:36:03;16.90;99.90
19206;DHT22;59358;52.134;5.596;2022-10-15T13:38:30;17.10;99.90
19206;DHT22;59358;52.134;5.596;2022-10-15T13:40:58;17.00;99.90
19206;DHT22;59358;52.134;5.596;2022-10-15T13:43:26;16.90;99.90
19206;DHT22;59358;52.134;5.596;2022-10-15T13:45:56;16.90;99.90
19206;DHT22;59358;52.134;5.596;2022-10-15T13:48:25;16.90;99.90
19206;DHT22;59358;52.134;5.596;2022-10-15T13:50:54;16.80;99.90
19206;DHT22;59358;52.134;5.596;2022-10-15T13:53:26;16.80;99.90
19206;DHT22;59358;52.134;5.596;2022-10-15T13:55:56;16.80;99.90
19206;DHT22;59358;52.134;5.596;2022-10-15T13:58:24;16.90;99.90
19206;DHT22;59358;52.134;5.596;2022-10-15T14:00:57;17.10;99.90
19206;DHT22;59358;52.134;5.596;2022-10-15T14:03:25;17.30;99.90
19206;DHT22;59358;52.134;5.596;2022-10-15T14:05:54;17.30;99.90
19206;DHT22;59358;52.134;5.596;2022-10-15T14:08:24;17.30;99.90
19206;DHT22;59358;52.134;5.596;2022-10-15T14:10:54;17.20;99.90
19206;DHT22;59358;52.134;5.596;2022-10-15T14:13:21;17.10;99.90
19206;DHT22;59358;52.134;5.596;2022-10-15T14:18:47;17.00;99.90
19206;DHT22;59358;52.134;5.596;2022-10-15T14:21:16;17.00;99.90
19206;DHT22;59358;52.134;5.596;2022-10-15T14:23:44;17.00;99.90
19206;DHT22;59358;52.134;5.596;2022-10-15T14:26:14;17.20;99.90
19206;DHT22;59358;52.134;5.596;2022-10-15T14:28:48;17.30;99.90
19206;DHT22;59358;52.134;5.596;2022-10-15T14:31:29;17.40;99.90
19206;DHT22;59358;52.134;5.596;2022-10-15T14:33:57;17.40;99.90
19206;DHT22;59358;52.134;5.596;2022-10-15T14:36:26;17.40;99.90
19206;DHT22;59358;52.134;5.596;2022-10-15T14:38:54;17.40;99.90
19206;DHT22;59358;52.134;5.596;2022-10-15T14:41:24;17.50;99.90
19206;DHT22;59358;52.134;5.596;2022-10-15T14:44:15;17.30;99.90
19206;DHT22;59358;52.134;5.596;2022-10-15T14:46:45;17.40;99.90
19206;DHT22;59358;52.134;5.596;2022-10-15T14:49:20;17.40;99.90
19206;DHT22;59358;52.134;5.596;2022-10-15T14:51:55;17.50;99.90
19206;DHT22;59358;52.134;5.596;2022-10-15T14:54:29;17.50;99.90
19206;DHT22;59358;52.134;5.596;2022-10-15T14:56:57;17.20;99.90
19206;DHT22;59358;52.134;5.596;2022-10-15T14:59:29;17.10;99.90
19206;DHT22;59358;52.134;5.596;2022-10-15T15:01:58;17.00;99.90
19206;DHT22;59358;52.134;5.596;2022-10-15T15:04:39;17.00;99.90
19206;DHT22;59358;52.134;5.596;2022-10-15T15:07:16;17.00;99.90
19206;DHT22;59358;52.134;5.596;2022-10-15T15:09:47;16.90;99.90
19206;DHT22;59358;52.134;5.596;2022-10-15T15:12:18;17.00;99.90
19206;DHT22;59358;52.134;5.596;2022-10-15T15:14:46;17.10;99.90
19206;DHT22;59358;52.134;5.596;2022-10-15T15:17:16;17.00;99.90
19206;DHT22;59358;52.134;5.596;2022-10-15T15:19:45;17.00;99.90
19206;DHT22;59358;52.134;5.596;2022-10-15T15:22:14;17.00;99.90
19206;DHT22;59358;52.134;5.596;2022-10-15T15:24:42;17.10;99.90
19206;DHT22;59358;52.134;5.596;2022-10-15T15:27:23;16.90;99.90
19206;DHT22;59358;52.134;5.596;2022-10-15T15:29:50;16.70;99.90
19206;DHT22;59358;52.134;5.596;2022-10-15T15:32:18;16.50;99.90
19206;DHT22;59358;52.134;5.596;2022-10-15T15:34:47;16.30;99.90
19206;DHT22;59358;52.134;5.596;2022-10-15T15:37:16;16.20;99.90
19206;DHT22;59358;52.134;5.596;2022-10-15T15:39:43;16.10;99.90
19206;DHT22;59358;52.134;5.596;2022-10-15T15:42:12;16.00;99.90
19206;DHT22;59358;52.134;5.596;2022-10-15T15:44:39;16.10;99.90
19206;DHT22;59358;52.134;5.596;2022-10-15T15:47:06;16.50;99.90
19206;DHT22;59358;52.134;5.596;2022-10-15T15:49:34;16.90;99.90
19206;DHT22;59358;52.134;5.596;2022-10-15T15:52:03;17.00;99.90
19206;DHT22;59358;52.134;5.596;2022-10-15T15:54:30;16.90;99.90
19206;DHT22;59358;52.134;5.596;2022-10-15T15:56:57;16.50;99.90
19206;DHT22;59358;52.134;5.596;2022-10-15T15:59:24;16.30;99.90